Mildenhall, United Kingdom
Current Conditions -  °F | °C
As of 12:58 AM on Sunday 26 Oct 2014 (Local Time) from EGUN Reporting Station
Clear Clear  
Wind Chill: 52°   Ceiling: Unl
Heat Index: 52°   Visibility: 6mi
Dew Point: 51°   Wind: 10mph
Humidity: 97%   Direction: 210°SSW
Pressure: 30.1"   Gusts: NA
Location:  52.35°N, 0.52°E
Report Text: EGUN 252358Z AUTO 21009KT 9999 CLR 11/11 A3010 RMK AO2 SLP196 T01100106 10132 20108 401540063 51004 $
Loading
Personal Weather Stations






























Interactive Weather Map
Tropical Storm Tracking
New forecast layout! Learn more

10-Day Weather Forecast

Advertisements
Track Severe Weather on mobile